Terminal Aerodrome Forecast
Issued by NWS

Home | Current Version | Previous Version | Graphics & Text | Print | Product List | Glossary On
Versions: 1 2 3 4 5 6 7 8 9 10 11 12 13 14 15 16 17 18 19 20 21 22
000
FTUS43 KLOT 240536
TAFDPA
TAF
KDPA 240536Z 2406/2506 03005KT P6SM VCSH SCT025 OVC070
     FM240700 03005KT P6SM VCSH BKN025 OVC035
     FM240900 03005KT P6SM VCSH SCT007 OVC012
     FM241500 02009KT P6SM OVC016
     FM242000 02013KT P6SM SCT025 OVC090
     FM250300 02015G23KT P6SM FEW020 SCT040 BKN100=

USA.gov is the U.S. government's official web portal to all federal, state and local government web resources and services.